Time;durP1;ratioP1;P1;durP2;ratioP2;P2;SDS_P1;SDS_P2;PMS_P1;PMS_P2;Temp;Humidity;BMP_temperature;BMP_pressure;BME280_temperature;BME280_humidity;BME280_pressure;Samples;Min_cycle;Max_cycle;Signal;HPM_P1;HPM_P2
2020/12/14 00:00:09;;;;;;;4.93;4.30;;;4.80;99.90;;;;;;5085379;28;20495;-69
2020/12/14 00:02:36;;;;;;;6.67;5.20;;;4.60;99.90;;;;;;5072775;28;20538;-69
2020/12/14 00:05:03;;;;;;;5.87;4.60;;;4.70;99.90;;;;;;5083535;28;20475;-69
2020/12/14 00:07:29;;;;;;;8.30;6.07;;;4.80;99.90;;;;;;5086663;28;20524;-69
2020/12/14 00:09:56;;;;;;;7.77;5.20;;;4.70;99.90;;;;;;5088261;28;20540;-69
2020/12/14 00:12:22;;;;;;;5.90;5.27;;;4.60;99.90;;;;;;5074820;28;20446;-69
2020/12/14 00:14:49;;;;;;;5.97;4.83;;;4.50;99.90;;;;;;5087317;28;20567;-69
2020/12/14 00:17:18;;;;;;;5.83;4.60;;;4.40;99.90;;;;;;5077659;28;20487;-69
2020/12/14 00:19:45;;;;;;;5.83;4.97;;;4.40;99.90;;;;;;5077050;28;20556;-69
2020/12/14 00:22:11;;;;;;;7.87;5.17;;;4.40;99.90;;;;;;5077057;28;20564;-69
2020/12/14 00:24:38;;;;;;;8.47;4.80;;;4.30;99.90;;;;;;5082610;28;20532;-69
2020/12/14 00:27:04;;;;;;;6.07;5.00;;;4.10;99.90;;;;;;5072917;28;20530;-69
2020/12/14 00:29:30;;;;;;;7.53;5.30;;;4.00;99.90;;;;;;5080962;28;20820;-69
2020/12/14 00:31:58;;;;;;;6.90;5.47;;;4.10;99.90;;;;;;5072641;28;20532;-69
2020/12/14 00:34:25;;;;;;;6.20;4.50;;;4.20;99.90;;;;;;5090888;28;20563;-69
2020/12/14 00:36:51;;;;;;;7.50;5.87;;;4.30;99.90;;;;;;5079482;28;20507;-69
2020/12/14 00:39:18;;;;;;;8.50;5.83;;;4.30;99.90;;;;;;5071762;28;20449;-69
2020/12/14 00:41:45;;;;;;;7.97;5.40;;;4.40;99.90;;;;;;5073772;28;20537;-70
2020/12/14 00:44:11;;;;;;;8.40;5.50;;;4.10;99.90;;;;;;5087011;28;20528;-69
2020/12/14 00:46:37;;;;;;;8.43;5.97;;;4.00;99.90;;;;;;5074278;28;21045;-69
2020/12/14 00:49:05;;;;;;;5.90;5.07;;;3.90;99.90;;;;;;5085926;28;20527;-69
2020/12/14 00:51:31;;;;;;;7.10;5.30;;;4.00;99.90;;;;;;5077636;28;20493;-69
2020/12/14 00:53:59;;;;;;;7.30;5.60;;;4.10;99.90;;;;;;5075484;28;20517;-69
2020/12/14 00:56:25;;;;;;;7.07;5.20;;;4.10;99.90;;;;;;5080937;28;20442;-69
2020/12/14 00:58:51;;;;;;;7.00;5.90;;;4.40;99.90;;;;;;5078108;28;20532;-69
2020/12/14 01:01:19;;;;;;;7.97;5.70;;;4.50;99.90;;;;;;5069957;28;20556;-69
2020/12/14 01:03:45;;;;;;;6.43;5.30;;;4.60;99.90;;;;;;5071134;28;20532;-69
2020/12/14 01:06:13;;;;;;;5.97;5.20;;;4.70;99.90;;;;;;5084027;28;20552;-69
2020/12/14 01:08:41;;;;;;;5.67;4.93;;;4.80;99.90;;;;;;5085571;28;20587;-70
2020/12/14 01:11:07;;;;;;;6.93;4.83;;;4.80;99.90;;;;;;5084697;28;20436;-69
2020/12/14 01:13:34;;;;;;;8.13;5.67;;;4.60;99.90;;;;;;5083531;28;20539;-70
2020/12/14 01:16:00;;;;;;;7.07;5.00;;;4.70;99.90;;;;;;5074267;28;20912;-69
2020/12/14 01:18:27;;;;;;;6.60;5.07;;;4.40;99.90;;;;;;5081481;28;20532;-69
2020/12/14 01:20:53;;;;;;;7.57;5.47;;;4.30;99.90;;;;;;5075814;28;20996;-69
2020/12/14 01:23:20;;;;;;;6.97;4.70;;;4.10;99.90;;;;;;5081062;28;20531;-69
2020/12/14 01:25:46;;;;;;;6.20;4.63;;;4.00;99.90;;;;;;5073152;28;21008;-69
2020/12/14 01:28:13;;;;;;;6.07;5.10;;;4.10;99.90;;;;;;5064265;28;20442;-69
2020/12/14 01:30:39;;;;;;;7.03;5.10;;;4.00;99.90;;;;;;5077098;28;20455;-69
2020/12/14 01:33:05;;;;;;;10.90;5.70;;;4.10;99.90;;;;;;5070103;28;20473;-69
2020/12/14 01:35:32;;;;;;;7.07;4.63;;;4.30;99.90;;;;;;5087101;28;20479;-70
2020/12/14 01:37:58;;;;;;;6.20;4.67;;;4.20;99.90;;;;;;5076975;28;20525;-69
2020/12/14 01:40:25;;;;;;;6.37;5.47;;;4.00;99.90;;;;;;5083059;28;20535;-69
2020/12/14 01:42:52;;;;;;;6.57;5.53;;;4.00;99.90;;;;;;5079606;28;20892;-69
2020/12/14 01:45:19;;;;;;;6.83;5.10;;;3.80;99.90;;;;;;5075119;28;20522;-69
2020/12/14 01:47:49;;;;;;;8.33;5.17;;;3.80;99.90;;;;;;5075598;28;20473;-69
2020/12/14 01:50:16;;;;;;;7.17;5.03;;;4.00;99.90;;;;;;5086103;28;20491;-69
2020/12/14 01:52:44;;;;;;;4.80;4.30;;;3.80;99.90;;;;;;5079203;28;20485;-69
2020/12/14 01:55:14;;;;;;;6.23;4.57;;;3.70;99.90;;;;;;5075830;28;20480;-69
2020/12/14 01:57:42;;;;;;;10.70;5.00;;;3.70;99.90;;;;;;5079724;28;20446;-69
2020/12/14 02:00:11;;;;;;;7.37;5.00;;;3.90;99.90;;;;;;5081585;28;20543;-69
2020/12/14 02:02:37;;;;;;;7.43;4.90;;;3.80;99.90;;;;;;5070603;28;20544;-69
2020/12/14 02:05:07;;;;;;;5.73;4.83;;;3.90;99.90;;;;;;5076832;28;20544;-69
2020/12/14 02:07:33;;;;;;;6.07;5.40;;;4.10;99.90;;;;;;5083926;28;21020;-68
2020/12/14 02:10:00;;;;;;;6.67;4.57;;;4.10;99.90;;;;;;5072174;28;20985;-69
2020/12/14 02:12:28;;;;;;;6.83;4.63;;;4.00;99.90;;;;;;5075953;28;20492;-69
2020/12/14 02:14:58;;;;;;;5.50;4.30;;;4.10;99.90;;;;;;5077612;28;21025;-69
2020/12/14 02:17:25;;;;;;;8.33;5.27;;;4.10;99.90;;;;;;5072076;28;20815;-69
2020/12/14 02:19:53;;;;;;;7.77;5.17;;;4.20;99.90;;;;;;5075455;28;20475;-69
2020/12/14 02:22:21;;;;;;;5.07;4.27;;;4.00;99.90;;;;;;5077766;28;20461;-69
2020/12/14 02:24:54;;;;;;;6.23;4.80;;;4.00;99.90;;;;;;5080671;28;20873;-69
2020/12/14 02:27:21;;;;;;;7.50;4.90;;;3.60;99.90;;;;;;5074397;28;20445;-69
2020/12/14 02:29:48;;;;;;;8.53;4.30;;;3.70;99.90;;;;;;5077859;28;20473;-69
2020/12/14 02:32:16;;;;;;;6.40;4.50;;;3.90;99.90;;;;;;5081738;28;20448;-69
2020/12/14 02:34:42;;;;;;;4.80;4.27;;;3.90;99.90;;;;;;5070374;28;20583;-69
2020/12/14 02:37:10;;;;;;;6.03;4.30;;;4.00;99.90;;;;;;5074722;28;20444;-69
2020/12/14 02:39:37;;;;;;;5.57;4.30;;;4.00;99.90;;;;;;5081650;28;20535;-69
2020/12/14 02:42:09;;;;;;;5.97;4.83;;;4.10;99.90;;;;;;5073848;28;20531;-69
2020/12/14 02:44:36;;;;;;;5.63;4.70;;;4.10;99.90;;;;;;5070096;28;20441;-69
2020/12/14 02:47:02;;;;;;;5.47;4.70;;;4.00;99.90;;;;;;5070442;28;20901;-69
2020/12/14 02:49:29;;;;;;;5.93;4.47;;;4.00;99.90;;;;;;5082442;28;20855;-69
2020/12/14 02:51:55;;;;;;;5.83;4.00;;;3.90;99.90;;;;;;5084890;28;20536;-69
2020/12/14 02:54:22;;;;;;;8.30;4.50;;;4.00;99.90;;;;;;5074277;28;20886;-69
2020/12/14 02:56:48;;;;;;;6.33;4.30;;;4.10;99.90;;;;;;5079864;28;20845;-69
2020/12/14 02:59:16;;;;;;;4.80;4.20;;;4.10;99.90;;;;;;5070290;28;20540;-69
2020/12/14 03:01:42;;;;;;;5.50;4.70;;;4.20;99.90;;;;;;5071750;28;20791;-69
2020/12/14 03:04:09;;;;;;;5.73;3.60;;;4.20;99.90;;;;;;5074919;28;20572;-69
2020/12/14 03:06:35;;;;;;;5.83;3.93;;;4.10;99.90;;;;;;5076437;28;20543;-69
2020/12/14 03:09:02;;;;;;;4.80;4.03;;;4.20;99.90;;;;;;5069770;28;20567;-69
2020/12/14 03:11:29;;;;;;;6.80;4.30;;;3.90;99.90;;;;;;5076661;28;20481;-69
2020/12/14 03:13:55;;;;;;;4.83;4.27;;;3.70;99.90;;;;;;5080949;28;20528;-69
2020/12/14 03:16:22;;;;;;;4.47;3.30;;;3.60;99.90;;;;;;5077955;28;20509;-69
2020/12/14 03:18:49;;;;;;;5.40;3.53;;;3.60;99.90;;;;;;5073265;28;20523;-69
2020/12/14 03:21:15;;;;;;;5.90;4.83;;;3.50;99.90;;;;;;5072788;28;20548;-69
2020/12/14 03:23:42;;;;;;;6.50;4.47;;;3.70;99.90;;;;;;5084101;28;20473;-69
2020/12/14 03:26:08;;;;;;;5.47;4.60;;;3.50;99.90;;;;;;5072521;28;20548;-69
2020/12/14 03:28:34;;;;;;;6.00;4.73;;;3.60;99.90;;;;;;5073115;28;20460;-69
2020/12/14 03:31:04;;;;;;;5.77;4.23;;;3.80;99.90;;;;;;5075702;28;21028;-69
2020/12/14 03:33:32;;;;;;;5.27;4.77;;;4.00;99.90;;;;;;5084498;28;20471;-70
2020/12/14 03:35:59;;;;;;;5.50;3.97;;;4.10;99.90;;;;;;5082012;28;20512;-69
2020/12/14 03:38:26;;;;;;;5.70;3.90;;;4.10;99.90;;;;;;5079802;28;20460;-69
2020/12/14 03:40:52;;;;;;;6.57;4.67;;;4.00;99.90;;;;;;5080049;28;20456;-69
2020/12/14 03:43:19;;;;;;;5.80;4.53;;;3.90;99.90;;;;;;5076157;28;20449;-69
2020/12/14 03:45:48;;;;;;;6.30;4.40;;;3.90;99.90;;;;;;5062488;28;20543;-69
2020/12/14 03:48:15;;;;;;;4.97;3.87;;;4.10;99.90;;;;;;5079463;28;20457;-69
2020/12/14 03:50:44;;;;;;;5.97;4.60;;;3.90;99.90;;;;;;5086589;28;20445;-70
2020/12/14 03:53:10;;;;;;;4.73;3.43;;;4.00;99.90;;;;;;5075953;28;20536;-69
2020/12/14 03:55:37;;;;;;;4.87;3.57;;;4.00;99.90;;;;;;5082547;28;20570;-69
2020/12/14 03:58:03;;;;;;;7.40;4.30;;;4.10;99.90;;;;;;5077493;28;20530;-69
2020/12/14 04:00:29;;;;;;;5.13;3.93;;;4.10;99.90;;;;;;5082658;28;20533;-69
2020/12/14 04:02:56;;;;;;;6.13;4.57;;;4.00;99.90;;;;;;5077382;28;20532;-69
2020/12/14 04:05:22;;;;;;;4.50;3.87;;;3.70;99.90;;;;;;5081175;28;20456;-69
2020/12/14 04:07:49;;;;;;;5.97;4.30;;;3.60;99.90;;;;;;5075176;28;20438;-68
2020/12/14 04:10:16;;;;;;;4.77;3.93;;;3.50;99.90;;;;;;5080946;28;20516;-69
2020/12/14 04:12:42;;;;;;;5.33;4.33;;;3.50;99.90;;;;;;5074868;28;20554;-69
2020/12/14 04:15:08;;;;;;;5.80;4.87;;;3.70;99.90;;;;;;5078850;28;20480;-69
2020/12/14 04:17:35;;;;;;;5.40;4.20;;;3.90;99.90;;;;;;5076373;28;20539;-69
2020/12/14 04:20:01;;;;;;;4.90;3.97;;;3.90;99.90;;;;;;5075985;28;20941;-69
2020/12/14 04:22:28;;;;;;;3.80;3.40;;;3.80;99.90;;;;;;5077214;28;20559;-69
2020/12/14 04:24:55;;;;;;;6.17;3.87;;;3.70;99.90;;;;;;5088760;28;20528;-70
2020/12/14 04:27:21;;;;;;;5.60;4.30;;;3.70;99.90;;;;;;5075716;28;21119;-69
2020/12/14 04:29:48;;;;;;;3.77;3.30;;;3.60;99.90;;;;;;5077838;28;20465;-69
2020/12/14 04:32:14;;;;;;;5.97;3.90;;;3.60;99.90;;;;;;5081434;28;20446;-69
2020/12/14 04:34:40;;;;;;;7.03;3.90;;;3.80;99.90;;;;;;5086682;28;22416;-69
2020/12/14 04:37:07;;;;;;;5.53;4.43;;;3.70;99.90;;;;;;5074155;28;20539;-69
2020/12/14 04:39:33;;;;;;;4.60;3.53;;;3.80;99.90;;;;;;5079571;28;21036;-69
2020/12/14 04:42:01;;;;;;;4.73;4.00;;;3.80;99.90;;;;;;5085815;28;20441;-69
2020/12/14 04:44:29;;;;;;;5.30;3.63;;;3.80;99.90;;;;;;5083386;28;20454;-69
2020/12/14 04:46:56;;;;;;;6.30;4.20;;;3.80;99.90;;;;;;5078873;28;20462;-70
2020/12/14 04:49:22;;;;;;;4.13;3.73;;;3.80;99.90;;;;;;5080426;28;20547;-69
2020/12/14 04:51:49;;;;;;;5.00;3.67;;;3.80;99.90;;;;;;5076474;28;20467;-69
2020/12/14 04:54:16;;;;;;;5.37;4.33;;;3.80;99.90;;;;;;5082671;28;20484;-69
2020/12/14 04:56:43;;;;;;;6.90;4.30;;;3.80;99.90;;;;;;5071943;28;20483;-69
2020/12/14 04:59:10;;;;;;;3.83;3.43;;;3.80;99.90;;;;;;5082498;28;20448;-69
2020/12/14 05:01:37;;;;;;;4.57;4.17;;;3.60;99.90;;;;;;5075160;28;20883;-69
2020/12/14 05:04:03;;;;;;;5.50;4.17;;;3.60;99.90;;;;;;5071024;28;20579;-72
2020/12/14 05:06:48;;;;;;;4.23;3.40;;;3.70;99.90;;;;;;5070028;28;20451;-70
2020/12/14 05:09:16;;;;;;;5.43;4.00;;;3.70;99.90;;;;;;5085432;28;20964;-70
2020/12/14 05:11:43;;;;;;;5.70;4.10;;;3.60;99.90;;;;;;5073756;28;20544;-70
2020/12/14 05:14:15;;;;;;;4.27;3.60;;;3.70;99.90;;;;;;5077959;28;20445;-70
2020/12/14 05:16:41;;;;;;;5.70;4.20;;;3.60;99.90;;;;;;5086242;28;20871;-71
2020/12/14 05:19:17;;;;;;;4.20;3.80;;;3.40;99.90;;;;;;5076122;28;20443;-72
2020/12/14 05:21:46;;;;;;;5.60;3.80;;;3.10;99.90;;;;;;5075660;28;20540;-69
2020/12/14 05:24:18;;;;;;;4.00;3.47;;;3.00;99.90;;;;;;5077642;28;20534;-68
2020/12/14 05:26:46;;;;;;;9.67;5.80;;;2.90;99.90;;;;;;5076609;28;20529;-72
2020/12/14 05:29:21;;;;;;;5.27;4.30;;;2.90;99.90;;;;;;5075217;28;20531;-70
2020/12/14 05:32:16;;;;;;;8.00;5.00;;;3.10;99.90;;;;;;5079074;28;20917;-70
2020/12/14 05:34:44;;;;;;;7.80;5.60;;;3.30;99.90;;;;;;5063264;28;20460;-70
2020/12/14 05:37:12;;;;;;;8.83;5.00;;;3.20;99.90;;;;;;5075617;28;20523;-70
2020/12/14 05:39:40;;;;;;;7.27;5.37;;;3.30;99.90;;;;;;5077626;28;20440;-69
2020/12/14 05:42:14;;;;;;;6.53;5.10;;;3.20;99.90;;;;;;5085514;28;20531;-69
2020/12/14 05:44:42;;;;;;;6.77;5.50;;;3.40;99.90;;;;;;5079016;28;20508;-72
2020/12/14 05:47:26;;;;;;;7.37;4.97;;;3.50;99.90;;;;;;5075708;28;21071;-71
2020/12/14 05:49:53;;;;;;;6.70;5.23;;;3.50;99.90;;;;;;5082212;28;20425;-71
2020/12/14 05:52:22;;;;;;;8.30;4.90;;;3.40;99.90;;;;;;5080182;28;20538;-74
2020/12/14 05:54:54;;;;;;;11.53;5.60;;;3.60;99.90;;;;;;5078381;28;20811;-72
2020/12/14 05:57:29;;;;;;;8.43;6.23;;;4.10;99.90;;;;;;5084148;28;20929;-71
2020/12/14 06:00:02;;;;;;;13.57;6.03;;;4.00;99.90;;;;;;5082644;28;20434;-72
2020/12/14 06:02:28;;;;;;;6.80;5.77;;;3.70;99.90;;;;;;5073820;28;20426;-71
2020/12/14 06:04:57;;;;;;;9.67;5.40;;;3.70;99.90;;;;;;5082855;28;20451;-71
2020/12/14 06:07:27;;;;;;;7.20;5.50;;;3.70;99.90;;;;;;5085941;28;20452;-72
2020/12/14 06:10:11;;;;;;;7.80;4.50;;;3.80;99.90;;;;;;5070538;28;20583;-71
2020/12/14 06:12:39;;;;;;;5.27;4.73;;;4.00;99.90;;;;;;5077654;28;20485;-71
2020/12/14 06:15:08;;;;;;;6.47;4.83;;;3.80;99.90;;;;;;5084527;28;20507;-71
2020/12/14 06:17:36;;;;;;;7.97;6.07;;;3.80;99.90;;;;;;5086678;28;20470;-71
2020/12/14 06:20:14;;;;;;;9.03;5.87;;;3.90;99.90;;;;;;5075028;28;20545;-71
2020/12/14 06:22:45;;;;;;;11.97;6.90;;;3.80;99.90;;;;;;5082021;28;21008;-73
2020/12/14 06:25:12;;;;;;;6.93;5.60;;;4.10;99.90;;;;;;5087139;28;20520;-73
2020/12/14 06:27:38;;;;;;;8.33;6.10;;;4.10;99.90;;;;;;5071433;28;20813;-73
2020/12/14 06:30:30;;;;;;;7.23;5.57;;;3.90;99.90;;;;;;5076225;28;20948;-73
2020/12/14 06:33:00;;;;;;;6.23;5.10;;;4.00;99.90;;;;;;5076536;28;20799;-71
2020/12/14 06:35:47;;;;;;;10.70;6.60;;;4.00;99.90;;;;;;5087980;28;20486;-72
2020/12/14 06:38:37;;;;;;;7.07;5.13;;;3.90;99.90;;;;;;5075737;28;20433;-72
2020/12/14 06:41:10;;;;;;;9.60;5.57;;;3.90;99.90;;;;;;5079858;28;20523;-70
2020/12/14 06:43:36;;;;;;;9.97;5.93;;;3.70;99.90;;;;;;5085153;28;20508;-71
2020/12/14 06:46:04;;;;;;;7.27;5.67;;;3.70;99.90;;;;;;5077660;28;20445;-72
2020/12/14 06:48:40;;;;;;;10.60;6.77;;;3.70;99.90;;;;;;5086648;28;20498;-71
2020/12/14 06:51:08;;;;;;;7.87;6.20;;;3.80;99.90;;;;;;5091776;28;20451;-73
2020/12/14 06:53:48;;;;;;;8.80;6.03;;;3.90;99.90;;;;;;5079832;28;20535;-73
2020/12/14 06:56:15;;;;;;;9.43;6.30;;;3.80;99.90;;;;;;5081678;28;20475;-71
2020/12/14 06:58:43;;;;;;;12.53;7.50;;;3.80;99.90;;;;;;5089860;28;20476;-72
2020/12/14 07:01:33;;;;;;;9.30;6.20;;;3.90;99.90;;;;;;5079739;28;20521;-71
2020/12/14 07:04:01;;;;;;;11.27;6.90;;;3.90;99.90;;;;;;5070876;28;20956;-74
2020/12/14 07:06:28;;;;;;;11.23;6.80;;;3.80;99.90;;;;;;5088209;28;20440;-72
2020/12/14 07:08:55;;;;;;;7.80;5.83;;;3.70;99.90;;;;;;5092928;28;20554;-71
2020/12/14 07:11:23;;;;;;;8.17;6.27;;;3.90;99.90;;;;;;5081625;28;20446;-72
2020/12/14 07:13:51;;;;;;;10.77;7.80;;;4.60;99.90;;;;;;5081789;28;20950;-72
2020/12/14 07:16:19;;;;;;;7.77;6.70;;;4.40;99.90;;;;;;5091159;28;20490;-72
2020/12/14 07:18:48;;;;;;;6.90;5.77;;;4.30;99.90;;;;;;5081970;28;20449;-72
2020/12/14 07:21:16;;;;;;;7.50;6.30;;;4.20;99.90;;;;;;5084320;28;20452;-72
2020/12/14 07:23:44;;;;;;;8.27;6.83;;;3.90;99.90;;;;;;5085738;28;20526;-72
2020/12/14 07:26:12;;;;;;;9.70;6.27;;;3.80;99.90;;;;;;5085952;28;20976;-72
2020/12/14 07:28:41;;;;;;;9.07;5.83;;;3.70;99.90;;;;;;5079731;28;20526;-72
2020/12/14 07:31:10;;;;;;;9.10;6.30;;;3.70;99.90;;;;;;5087003;28;20471;-72
2020/12/14 07:33:37;;;;;;;9.30;6.80;;;3.80;99.90;;;;;;5088319;28;20498;-72
2020/12/14 07:36:08;;;;;;;9.50;6.13;;;3.70;99.90;;;;;;5076848;28;20508;-73
2020/12/14 07:38:34;;;;;;;10.33;6.70;;;3.60;99.90;;;;;;5083513;28;20512;-72
2020/12/14 07:41:05;;;;;;;8.57;7.23;;;3.60;99.90;;;;;;5090194;28;20523;-73
2020/12/14 07:43:40;;;;;;;10.00;6.63;;;3.50;99.90;;;;;;5091123;28;20432;-72
2020/12/14 07:46:16;;;;;;;9.43;5.40;;;3.60;99.90;;;;;;5078315;28;20532;-72
2020/12/14 07:48:50;;;;;;;11.57;6.37;;;3.80;99.90;;;;;;5071652;28;20524;-72
2020/12/14 07:51:18;;;;;;;8.27;5.90;;;3.80;99.90;;;;;;5091632;28;20495;-72
2020/12/14 07:53:45;;;;;;;11.27;7.30;;;3.90;99.90;;;;;;5078308;28;20536;-72
2020/12/14 07:56:11;;;;;;;10.40;7.43;;;4.10;99.90;;;;;;5082037;28;20587;-72
2020/12/14 07:58:47;;;;;;;11.03;7.60;;;4.10;99.90;;;;;;5089341;28;20476;-72
2020/12/14 08:01:14;;;;;;;9.13;6.63;;;4.00;99.90;;;;;;5078527;28;20516;-72
2020/12/14 08:03:41;;;;;;;11.97;8.30;;;4.20;99.90;;;;;;5079882;28;20525;-72
2020/12/14 08:06:12;;;;;;;11.23;7.70;;;4.10;99.90;;;;;;5084952;28;20551;-72
2020/12/14 08:08:42;;;;;;;10.40;7.80;;;4.30;99.90;;;;;;5092486;28;20551;-72
2020/12/14 08:11:11;;;;;;;9.50;7.63;;;4.30;99.90;;;;;;5081357;28;20482;-72
2020/12/14 08:13:38;;;;;;;10.53;7.37;;;4.20;99.90;;;;;;5082405;28;20461;-72
2020/12/14 08:16:06;;;;;;;12.30;7.80;;;4.20;99.90;;;;;;5088582;28;20472;-70
2020/12/14 08:18:34;;;;;;;10.50;6.70;;;4.30;99.90;;;;;;5082834;28;20445;-72
2020/12/14 08:21:00;;;;;;;9.63;7.80;;;4.40;99.90;;;;;;5082421;28;20843;-72
2020/12/14 08:23:30;;;;;;;10.90;6.97;;;4.50;99.90;;;;;;5084952;28;20476;-72
2020/12/14 08:25:58;;;;;;;8.63;6.43;;;4.40;99.90;;;;;;5086594;28;20449;-71
2020/12/14 08:28:28;;;;;;;9.90;7.23;;;4.60;99.90;;;;;;5076111;28;20453;-71
2020/12/14 08:30:55;;;;;;;12.17;7.03;;;4.60;99.90;;;;;;5079008;28;20511;-71
2020/12/14 08:33:21;;;;;;;10.93;7.23;;;4.60;99.90;;;;;;5088085;28;20865;-71
2020/12/14 08:35:50;;;;;;;9.60;6.73;;;4.70;99.90;;;;;;5088752;28;20556;-72
2020/12/14 08:38:18;;;;;;;11.53;8.03;;;4.70;63.70;;;;;;5077918;28;20479;-71
2020/12/14 08:40:53;;;;;;;9.80;7.60;;;4.70;36.90;;;;;;5087795;28;20525;-72
2020/12/14 08:43:23;;;;;;;12.30;8.40;;;4.80;97.20;;;;;;5090121;28;20801;-71
2020/12/14 08:45:57;;;;;;;10.03;6.70;;;4.90;22.30;;;;;;5066707;28;20445;-71
2020/12/14 08:48:24;;;;;;;10.77;7.47;;;4.90;1.00;;;;;;5082773;28;20845;-71
2020/12/14 08:50:50;;;;;;;10.17;6.40;;;4.90;1.00;;;;;;5089685;28;20516;-72
2020/12/14 08:53:23;;;;;;;8.47;6.80;;;4.80;34.00;;;;;;5077959;28;20445;-72
2020/12/14 08:55:50;;;;;;;9.27;7.10;;;4.90;6.80;;;;;;5069721;28;21047;-72
2020/12/14 08:58:17;;;;;;;11.10;8.00;;;4.90;27.40;;;;;;5080392;28;20525;-73
2020/12/14 09:00:44;;;;;;;10.57;7.13;;;5.10;1.00;;;;;;5071327;28;20532;-72
2020/12/14 09:03:10;;;;;;;11.10;6.60;;;5.10;1.00;;;;;;5078308;28;20436;-72
2020/12/14 09:05:37;;;;;;;9.93;6.50;;;5.10;1.00;;;;;;5072463;28;20548;-72
2020/12/14 09:08:14;;;;;;;8.67;6.43;;;5.10;1.00;;;;;;5088816;28;20512;-70
2020/12/14 09:10:40;;;;;;;9.00;6.20;;;5.30;1.00;;;;;;5080127;28;20517;-71
2020/12/14 09:13:08;;;;;;;7.43;6.00;;;5.30;1.00;;;;;;5082200;28;20480;-71
2020/12/14 09:15:35;;;;;;;8.37;5.90;;;5.70;1.00;;;;;;5084596;28;20987;-71
2020/12/14 09:18:03;;;;;;;9.77;7.10;;;5.60;1.00;;;;;;5085641;28;20544;-71
2020/12/14 09:20:30;;;;;;;9.20;7.03;;;5.70;1.00;;;;;;5075173;28;20532;-71
2020/12/14 09:22:56;;;;;;;9.00;6.40;;;5.80;1.00;;;;;;5084839;28;20581;-73
2020/12/14 09:25:23;;;;;;;10.23;6.80;;;5.80;1.00;;;;;;5087428;28;20888;-72
2020/12/14 09:27:49;;;;;;;9.20;6.67;;;6.00;1.00;;;;;;5075584;28;20473;-72
2020/12/14 09:30:16;;;;;;;8.93;6.57;;;6.00;1.00;;;;;;5080023;28;20442;-72
2020/12/14 09:32:42;;;;;;;11.43;6.83;;;6.00;1.00;;;;;;5087547;28;20528;-72
2020/12/14 09:35:09;;;;;;;9.97;6.93;;;6.20;1.00;;;;;;5090482;28;20784;-72
2020/12/14 09:37:36;;;;;;;9.30;6.77;;;6.30;1.00;;;;;;5078680;28;20440;-72
2020/12/14 09:40:03;;;;;;;9.00;6.30;;;6.30;99.90;;;;;;5081521;28;20524;-72
2020/12/14 09:42:30;;;;;;;9.43;7.13;;;6.40;99.90;;;;;;5089230;28;20519;-73
2020/12/14 09:44:57;;;;;;;7.90;6.00;;;6.50;99.90;;;;;;5079227;28;20986;-72
2020/12/14 09:47:23;;;;;;;10.63;6.90;;;6.40;99.90;;;;;;5081528;28;21008;-72
2020/12/14 09:49:50;;;;;;;10.23;6.80;;;6.50;99.90;;;;;;5083904;28;20522;-72
2020/12/14 09:52:17;;;;;;;8.20;5.53;;;6.50;99.90;;;;;;5082846;28;20552;-72
2020/12/14 09:54:43;;;;;;;8.77;6.20;;;6.60;96.20;;;;;;5076975;28;20470;-72
2020/12/14 09:57:10;;;;;;;9.17;6.07;;;6.70;1.00;;;;;;5084093;28;20480;-72
2020/12/14 09:59:36;;;;;;;9.60;5.57;;;6.80;99.90;;;;;;5085738;28;20876;-72
2020/12/14 10:02:02;;;;;;;10.00;6.10;;;6.90;99.90;;;;;;5073587;28;20856;-72
2020/12/14 10:04:30;;;;;;;7.23;5.87;;;6.90;1.00;;;;;;5076451;28;20541;-72
2020/12/14 10:06:56;;;;;;;13.27;7.53;;;7.10;1.00;;;;;;5079409;28;20945;-73
2020/12/14 10:09:23;;;;;;;7.70;6.13;;;7.30;1.00;;;;;;5086630;28;20899;-72
2020/12/14 10:11:50;;;;;;;9.30;5.80;;;7.50;99.90;;;;;;5076020;28;20433;-72
2020/12/14 10:14:16;;;;;;;7.87;5.80;;;7.50;99.90;;;;;;5081095;28;20477;-73
2020/12/14 10:16:43;;;;;;;9.77;5.90;;;7.70;99.90;;;;;;5088324;28;20848;-73
2020/12/14 10:19:09;;;;;;;6.90;5.27;;;7.90;1.00;;;;;;5077592;28;20556;-72
2020/12/14 10:21:35;;;;;;;7.63;6.43;;;8.00;1.00;;;;;;5078577;28;20448;-72
2020/12/14 10:24:02;;;;;;;7.80;6.50;;;8.00;1.00;;;;;;5084023;28;20437;-72
2020/12/14 10:26:29;;;;;;;8.93;5.93;;;8.10;1.00;;;;;;5080495;28;20477;-72
2020/12/14 10:28:55;;;;;;;7.83;5.50;;;8.20;99.90;;;;;;5076424;28;20473;-72
2020/12/14 10:31:22;;;;;;;7.57;5.37;;;8.20;99.90;;;;;;5082635;28;20501;-72
2020/12/14 10:33:48;;;;;;;8.30;5.57;;;8.10;99.90;;;;;;5085929;28;20451;-72
2020/12/14 10:36:18;;;;;;;8.73;4.90;;;8.20;99.90;;;;;;5082620;28;20564;-72
2020/12/14 10:38:45;;;;;;;7.63;4.83;;;8.20;14.90;;;;;;5079727;28;20436;-72
2020/12/14 10:41:11;;;;;;;6.23;5.03;;;8.30;99.90;;;;;;5085029;28;20441;-72
2020/12/14 10:43:38;;;;;;;7.07;5.40;;;8.40;99.90;;;;;;5085413;28;20544;-72
2020/12/14 10:46:05;;;;;;;5.73;5.13;;;8.30;99.90;;;;;;5075197;28;20532;-72
2020/12/14 10:48:31;;;;;;;8.23;4.87;;;8.20;99.90;;;;;;5081346;28;20442;-72
2020/12/14 10:50:58;;;;;;;7.20;5.30;;;8.20;99.90;;;;;;5088028;28;20441;-72
2020/12/14 10:53:24;;;;;;;15.73;5.73;;;8.30;99.90;;;;;;5076089;28;20991;-72
2020/12/14 10:55:51;;;;;;;7.00;5.47;;;8.20;1.00;;;;;;5077143;28;20568;-72
2020/12/14 10:58:17;;;;;;;5.53;4.90;;;8.30;99.90;;;;;;5084379;28;20528;-72
2020/12/14 11:00:44;;;;;;;6.77;4.40;;;8.40;41.00;;;;;;5077980;28;20536;-72
2020/12/14 11:03:11;;;;;;;7.60;5.80;;;8.50;1.00;;;;;;5073788;28;20519;-72
2020/12/14 11:05:37;;;;;;;7.27;5.60;;;8.60;1.00;;;;;;5080132;28;20443;-72
2020/12/14 11:08:03;;;;;;;8.37;5.27;;;8.50;1.00;;;;;;5087029;28;20527;-72
2020/12/14 11:10:30;;;;;;;8.90;5.10;;;8.60;1.00;;;;;;5079459;28;20472;-72
2020/12/14 11:12:56;;;;;;;6.17;4.30;;;8.80;1.00;;;;;;5079632;28;20472;-72
2020/12/14 11:15:23;;;;;;;6.50;5.40;;;8.90;99.90;;;;;;5072314;28;20524;-72
2020/12/14 11:17:50;;;;;;;5.40;4.50;;;8.90;99.90;;;;;;5084291;28;20528;-72
2020/12/14 11:20:16;;;;;;;7.93;4.97;;;9.00;1.00;;;;;;5073522;28;20456;-72
2020/12/14 11:22:43;;;;;;;7.10;5.30;;;9.20;93.40;;;;;;5082352;28;20539;-72
2020/12/14 11:25:10;;;;;;;5.87;4.50;;;9.00;99.90;;;;;;5086562;28;20523;-71
2020/12/14 11:27:37;;;;;;;5.33;4.33;;;9.10;97.00;;;;;;5074646;28;20523;-72
2020/12/14 11:30:04;;;;;;;4.90;4.10;;;9.20;38.50;;;;;;5076595;28;20441;-72
2020/12/14 11:32:30;;;;;;;6.10;4.40;;;9.30;1.00;;;;;;5087215;28;20432;-72
2020/12/14 11:34:58;;;;;;;6.50;3.93;;;9.30;97.60;;;;;;5092857;28;20547;-72
2020/12/14 11:37:24;;;;;;;5.80;4.23;;;9.40;60.50;;;;;;5081467;28;20837;-72
2020/12/14 11:39:50;;;;;;;8.77;5.07;;;9.50;1.00;;;;;;5082858;28;20535;-72
2020/12/14 11:42:17;;;;;;;6.47;4.20;;;9.50;37.80;;;;;;5090960;28;20437;-72
2020/12/14 11:44:44;;;;;;;4.47;3.73;;;9.50;1.00;;;;;;5082369;28;20454;-72
2020/12/14 11:47:10;;;;;;;5.50;4.63;;;9.70;1.00;;;;;;5077234;28;20441;-72
2020/12/14 11:49:37;;;;;;;5.20;4.00;;;9.80;99.90;;;;;;5084574;28;20523;-72
2020/12/14 11:52:06;;;;;;;7.83;3.93;;;9.70;1.00;;;;;;5087266;28;20537;-72
2020/12/14 11:54:33;;;;;;;5.23;3.07;;;9.60;99.90;;;;;;5076309;28;20461;-72
2020/12/14 11:56:59;;;;;;;7.70;3.53;;;9.80;99.90;;;;;;5086392;28;21043;-72
2020/12/14 11:59:25;;;;;;;4.30;3.23;;;9.90;99.90;;;;;;5086875;28;20524;-72
2020/12/14 12:01:54;;;;;;;4.00;3.30;;;10.00;51.50;;;;;;5075553;28;20452;-72
2020/12/14 12:04:21;;;;;;;5.30;4.00;;;9.90;56.60;;;;;;5079677;28;20867;-72
2020/12/14 12:06:47;;;;;;;8.10;4.20;;;10.00;28.20;;;;;;5089166;28;20527;-72
2020/12/14 12:09:14;;;;;;;4.47;3.83;;;10.20;1.00;;;;;;5091815;28;20560;-72
2020/12/14 12:11:41;;;;;;;4.93;3.70;;;10.00;1.00;;;;;;5078229;28;20446;-72
2020/12/14 12:14:07;;;;;;;6.97;4.63;;;10.20;1.00;;;;;;5083408;28;20452;-72
2020/12/14 12:16:33;;;;;;;5.27;3.53;;;10.40;1.00;;;;;;5090408;28;20480;-72
2020/12/14 12:19:00;;;;;;;5.17;3.50;;;10.40;1.00;;;;;;5080785;28;20533;-74
2020/12/14 12:21:26;;;;;;;4.03;3.60;;;10.30;1.00;;;;;;5082764;28;20539;-72
2020/12/14 12:23:52;;;;;;;4.57;3.27;;;10.40;1.00;;;;;;5085346;28;20521;-72
2020/12/14 12:26:20;;;;;;;5.00;3.53;;;10.50;1.00;;;;;;5084001;28;20545;-72
2020/12/14 12:28:46;;;;;;;4.00;3.37;;;10.60;1.00;;;;;;5078822;28;20524;-73
2020/12/14 12:31:12;;;;;;;3.73;3.30;;;10.60;1.00;;;;;;5085688;28;20564;-72
2020/12/14 12:33:41;;;;;;;4.40;3.17;;;10.90;1.00;;;;;;5087656;28;20459;-72
2020/12/14 12:36:08;;;;;;;4.33;3.00;;;10.90;1.00;;;;;;5086135;28;20563;-72
2020/12/14 12:38:35;;;;;;;3.30;3.00;;;10.80;1.00;;;;;;5080737;28;20448;-73
2020/12/14 12:41:01;;;;;;;4.67;2.97;;;10.60;1.00;;;;;;5088079;28;20528;-73
2020/12/14 12:43:29;;;;;;;4.13;3.00;;;11.10;99.90;;;;;;5088333;28;20523;-72
2020/12/14 12:45:55;;;;;;;4.00;2.67;;;11.70;1.00;;;;;;5077443;28;20476;-72
2020/12/14 12:48:22;;;;;;;3.50;2.87;;;11.70;99.90;;;;;;5083298;28;20885;-72
2020/12/14 12:50:53;;;;;;;7.73;3.43;;;11.20;99.90;;;;;;5090457;28;20523;-72
2020/12/14 12:53:22;;;;;;;3.53;2.93;;;11.30;99.90;;;;;;5077646;28;20461;-72
2020/12/14 12:55:48;;;;;;;5.17;3.13;;;11.00;99.90;;;;;;5070202;28;22882;-72
2020/12/14 12:58:15;;;;;;;4.10;3.00;;;10.90;1.00;;;;;;5085144;28;20444;-72
2020/12/14 13:00:42;;;;;;;3.70;3.20;;;10.70;13.30;;;;;;5079711;28;20525;-72